createdAt,value
2022-10-06T00:02:23.302Z,8.85
2022-10-06T00:05:26.091Z,8.79
2022-10-06T00:08:31.542Z,8.88
2022-10-06T00:11:35.711Z,8.90
2022-10-06T00:14:38.759Z,8.81
2022-10-06T00:17:42.154Z,8.90
2022-10-06T00:20:44.947Z,8.92
2022-10-06T00:23:47.621Z,8.86
2022-10-06T00:26:50.372Z,8.84
2022-10-06T00:29:53.219Z,8.78
2022-10-06T00:33:01.707Z,8.70
2022-10-06T00:36:04.769Z,8.71
2022-10-06T00:39:07.461Z,8.62
2022-10-06T00:42:22.567Z,8.67
2022-10-06T00:45:40.041Z,8.61
2022-10-06T00:48:44.799Z,8.66
2022-10-06T00:51:51.015Z,8.70
2022-10-06T00:54:54.035Z,8.71
2022-10-06T00:57:57.314Z,8.73
2022-10-06T01:01:00.314Z,8.68
2022-10-06T01:04:09.480Z,8.63
2022-10-06T01:07:12.479Z,8.58
2022-10-06T01:10:15.607Z,8.66
2022-10-06T01:13:18.785Z,8.59
2022-10-06T01:16:27.155Z,8.58
2022-10-06T01:19:47.610Z,8.56
2022-10-06T01:22:55.652Z,8.50
2022-10-06T01:26:01.265Z,8.44
2022-10-06T01:29:04.267Z,8.49
2022-10-06T01:32:08.031Z,8.64
2022-10-06T01:35:11.789Z,8.67
2022-10-06T01:38:16.433Z,8.65
2022-10-06T01:41:22.527Z,8.70
2022-10-06T01:44:25.398Z,8.71
2022-10-06T01:47:28.308Z,8.72
2022-10-06T01:50:31.970Z,8.72
2022-10-06T01:53:34.861Z,8.69
2022-10-06T01:56:38.040Z,8.63
2022-10-06T01:59:40.824Z,8.54
2022-10-06T02:02:43.765Z,8.44
2022-10-06T02:05:46.699Z,8.41
2022-10-06T02:08:49.972Z,8.45
2022-10-06T02:11:53.357Z,8.47
2022-10-06T02:14:56.186Z,8.56
2022-10-06T02:17:59.809Z,8.53
2022-10-06T02:21:04.054Z,8.48
2022-10-06T02:24:07.376Z,8.45
2022-10-06T02:27:10.363Z,8.37
2022-10-06T02:30:14.877Z,8.29
2022-10-06T02:33:19.414Z,8.33
2022-10-06T02:36:25.245Z,8.39
2022-10-06T02:39:28.789Z,8.34
2022-10-06T02:42:31.773Z,8.35
2022-10-06T02:45:35.837Z,8.40
2022-10-06T02:48:39.826Z,8.33
2022-10-06T02:51:43.422Z,8.29
2022-10-06T02:54:47.035Z,8.30
2022-10-06T02:57:50.275Z,8.28
2022-10-06T03:00:53.129Z,8.24
2022-10-06T03:03:56.219Z,8.24
2022-10-06T03:06:59.154Z,8.14
2022-10-06T03:10:07.534Z,8.15
2022-10-06T03:13:10.311Z,8.08
2022-10-06T03:16:19.484Z,8.02
2022-10-06T03:19:22.716Z,8.10
2022-10-06T03:22:26.106Z,8.13
2022-10-06T03:25:31.189Z,8.21
2022-10-06T03:28:34.399Z,8.20
2022-10-06T03:31:38.148Z,8.25
2022-10-06T03:34:41.282Z,8.25
2022-10-06T03:37:47.613Z,8.22
2022-10-06T03:40:50.839Z,8.19
2022-10-06T03:43:55.126Z,8.14
2022-10-06T03:46:58.329Z,8.09
2022-10-06T03:50:01.779Z,8.06
2022-10-06T03:53:05.518Z,8.02
2022-10-06T03:56:11.940Z,7.95
2022-10-06T03:59:17.524Z,7.93
2022-10-06T04:02:22.314Z,7.93
2022-10-06T04:05:25.080Z,7.83
2022-10-06T04:08:30.165Z,7.82
2022-10-06T04:11:37.723Z,7.81
2022-10-06T04:14:41.467Z,7.83
2022-10-06T04:17:44.727Z,7.86
2022-10-06T04:20:47.579Z,7.85
2022-10-06T04:23:53.858Z,7.89
2022-10-06T04:27:16.879Z,7.87
2022-10-06T04:30:26.348Z,7.94
2022-10-06T04:33:31.363Z,7.84
2022-10-06T04:36:38.270Z,7.79
2022-10-06T04:39:41.330Z,7.77
2022-10-06T04:42:45.826Z,7.78
2022-10-06T04:46:09.521Z,7.83
2022-10-06T04:49:24.956Z,7.71
2022-10-06T04:52:29.190Z,7.61
2022-10-06T04:55:31.989Z,7.59
2022-10-06T04:58:38.220Z,7.63
2022-10-06T05:01:41.180Z,7.65
2022-10-06T05:04:47.716Z,7.75
2022-10-06T05:07:52.126Z,7.68
2022-10-06T05:11:03.898Z,7.73
2022-10-06T05:14:07.073Z,7.76
2022-10-06T05:17:13.144Z,7.81
2022-10-06T05:20:18.021Z,7.87
2022-10-06T05:23:21.868Z,7.97
2022-10-06T05:26:28.577Z,8.01
2022-10-06T05:29:34.691Z,8.14
2022-10-06T05:32:38.886Z,8.26
2022-10-06T05:35:51.380Z,8.39
2022-10-06T05:38:58.717Z,8.46
2022-10-06T05:42:03.169Z,8.55
2022-10-06T05:45:06.346Z,8.61
2022-10-06T05:48:10.426Z,8.76
2022-10-06T05:51:13.811Z,8.91
2022-10-06T05:54:17.298Z,9.05
2022-10-06T05:57:20.159Z,9.16
2022-10-06T06:00:23.779Z,9.24
2022-10-06T06:03:31.273Z,9.29
2022-10-06T06:06:37.267Z,9.25
2022-10-06T06:09:43.447Z,9.29
2022-10-06T06:12:49.151Z,9.45
2022-10-06T06:16:31.180Z,9.62
2022-10-06T06:19:34.416Z,9.67
2022-10-06T06:22:37.572Z,9.44
2022-10-06T06:25:42.817Z,9.60
2022-10-06T06:29:07.798Z,9.71
2022-10-06T06:32:17.279Z,9.92
2022-10-06T06:35:20.934Z,10.18
2022-10-06T06:38:24.020Z,10.33
2022-10-06T06:41:31.354Z,11.53
2022-10-06T06:44:42.839Z,12.05
2022-10-06T06:48:06.315Z,14.30
2022-10-06T06:52:16.847Z,14.13
2022-10-06T06:55:20.354Z,14.15
2022-10-06T06:58:25.796Z,14.42
2022-10-06T07:01:29.146Z,15.03
2022-10-06T07:04:33.331Z,15.75
2022-10-06T07:07:36.709Z,16.88
2022-10-06T07:10:39.886Z,17.74
2022-10-06T07:13:43.787Z,18.10
2022-10-06T07:17:05.173Z,19.02
2022-10-06T07:20:27.384Z,20.15
2022-10-06T07:23:48.882Z,20.42
2022-10-06T07:26:55.273Z,21.22
2022-10-06T07:29:59.297Z,22.16
2022-10-06T07:33:07.632Z,21.58
2022-10-06T07:36:11.967Z,21.92
2022-10-06T07:39:15.757Z,22.67
2022-10-06T07:42:19.394Z,22.46
2022-10-06T07:45:38.712Z,23.44
2022-10-06T07:48:47.079Z,24.38
2022-10-06T07:52:20.990Z,25.70
2022-10-06T07:55:24.606Z,26.41
2022-10-06T07:58:45.866Z,25.23
2022-10-06T08:01:51.202Z,25.20
2022-10-06T08:04:59.397Z,25.86
2022-10-06T08:08:06.107Z,26.81
2022-10-06T08:11:13.827Z,28.32
2022-10-06T08:14:16.860Z,29.50
2022-10-06T08:17:19.912Z,29.18
2022-10-06T08:20:30.534Z,28.71
2022-10-06T08:23:33.311Z,28.10
2022-10-06T08:26:36.080Z,27.12
2022-10-06T08:29:38.829Z,26.19
2022-10-06T08:32:44.813Z,26.39
2022-10-06T08:35:53.187Z,26.79
2022-10-06T08:38:56.766Z,26.36
2022-10-06T08:41:59.672Z,27.62
2022-10-06T08:45:06.100Z,27.31
2022-10-06T08:48:24.266Z,28.02
2022-10-06T08:51:43.517Z,27.32
2022-10-06T08:55:14.118Z,29.07
2022-10-06T08:58:52.849Z,27.62
2022-10-06T09:01:55.897Z,28.63
2022-10-06T09:05:09.079Z,29.96
2022-10-06T09:08:42.117Z,29.04
2022-10-06T09:12:11.948Z,29.27
2022-10-06T09:15:16.855Z,29.58
2022-10-06T09:19:07.236Z,30.01
2022-10-06T09:23:01.717Z,31.27
2022-10-06T09:26:09.971Z,28.50
2022-10-06T09:29:14.765Z,28.93
2022-10-06T09:33:32.857Z,26.70
2022-10-06T09:37:01.659Z,28.30
2022-10-06T09:40:31.829Z,28.91
2022-10-06T09:43:34.581Z,30.65
2022-10-06T09:46:42.443Z,31.72
2022-10-06T09:50:22.557Z,32.18
2022-10-06T09:53:26.353Z,32.65
2022-10-06T10:00:27.825Z,29.98
2022-10-06T10:07:26.802Z,31.74
2022-10-06T10:10:35.695Z,32.16
2022-10-06T10:13:44.531Z,32.16
2022-10-06T10:16:53.134Z,32.22
2022-10-06T10:20:01.542Z,31.32
2022-10-06T10:23:21.502Z,30.00
2022-10-06T10:26:59.735Z,29.72
2022-10-06T10:30:10.048Z,31.34
2022-10-06T10:36:51.097Z,30.27
2022-10-06T10:40:16.631Z,31.79
2022-10-06T10:43:33.932Z,31.41
2022-10-06T10:46:44.943Z,31.65
2022-10-06T10:49:56.489Z,32.38
2022-10-06T10:53:11.436Z,34.28
2022-10-06T10:56:16.583Z,32.11
2022-10-06T10:59:36.350Z,32.24
2022-10-06T11:02:41.264Z,31.70
2022-10-06T11:06:03.683Z,31.21
2022-10-06T11:10:01.845Z,30.79
2022-10-06T11:14:17.032Z,30.89
2022-10-06T11:17:44.515Z,30.62
2022-10-06T11:20:53.435Z,30.94
2022-10-06T11:24:15.884Z,29.39
2022-10-06T11:27:59.232Z,29.84
2022-10-06T11:31:20.196Z,29.69
2022-10-06T11:34:26.240Z,30.41
2022-10-06T11:37:47.935Z,32.07
2022-10-06T11:41:16.286Z,33.02
2022-10-06T11:44:37.506Z,34.11
2022-10-06T11:48:22.158Z,30.71
2022-10-06T11:51:29.552Z,31.67
2022-10-06T11:54:53.701Z,30.63
2022-10-06T11:58:23.543Z,29.83
2022-10-06T12:02:45.762Z,29.12
2022-10-06T12:05:56.130Z,27.04
2022-10-06T12:08:59.516Z,27.54
2022-10-06T12:12:24.783Z,27.17
2022-10-06T12:19:20.450Z,27.96
2022-10-06T12:22:49.541Z,27.13
2022-10-06T12:26:20.079Z,27.31
2022-10-06T12:29:40.811Z,28.53
2022-10-06T12:33:00.653Z,27.62
2022-10-06T12:36:06.224Z,27.21
2022-10-06T12:39:23.687Z,26.84
2022-10-06T12:42:31.320Z,25.54
2022-10-06T12:45:34.600Z,24.54
2022-10-06T12:49:25.409Z,24.86
2022-10-06T12:52:39.404Z,24.22
2022-10-06T12:55:50.134Z,24.17
2022-10-06T12:58:52.952Z,24.77
2022-10-06T13:02:03.032Z,25.08
2022-10-06T13:05:12.885Z,24.28
2022-10-06T13:08:27.617Z,24.22
2022-10-06T13:11:30.371Z,23.96
2022-10-06T13:14:33.091Z,24.89
2022-10-06T13:17:49.001Z,24.61
2022-10-06T13:20:56.090Z,24.46
2022-10-06T13:23:59.343Z,24.33
2022-10-06T13:27:03.097Z,24.27
2022-10-06T13:30:22.594Z,23.98
2022-10-06T13:33:30.310Z,24.01
2022-10-06T13:36:37.469Z,24.30
2022-10-06T13:39:40.391Z,23.32
2022-10-06T13:42:47.451Z,23.36
2022-10-06T13:45:50.321Z,23.64
2022-10-06T13:48:59.812Z,23.29
2022-10-06T13:52:34.285Z,23.66
2022-10-06T13:55:37.076Z,23.58
2022-10-06T13:58:39.846Z,23.25
2022-10-06T14:01:43.430Z,23.77
2022-10-06T14:05:20.160Z,23.55
2022-10-06T14:08:28.149Z,23.36
2022-10-06T14:11:31.812Z,23.30
2022-10-06T14:14:34.703Z,23.21
2022-10-06T14:17:37.484Z,22.42
2022-10-06T14:20:46.032Z,22.43
2022-10-06T14:23:53.068Z,22.49
2022-10-06T14:27:01.932Z,22.32
2022-10-06T14:30:10.066Z,22.16
2022-10-06T14:33:12.954Z,22.47
2022-10-06T14:36:19.216Z,22.42
2022-10-06T14:39:22.308Z,22.66
2022-10-06T14:42:25.076Z,22.22
2022-10-06T14:45:27.741Z,22.36
2022-10-06T14:48:30.790Z,22.21
2022-10-06T14:51:36.636Z,22.05
2022-10-06T14:54:39.802Z,21.92
2022-10-06T14:57:42.498Z,21.81
2022-10-06T15:00:45.868Z,21.67
2022-10-06T15:03:53.372Z,21.72
2022-10-06T15:07:14.714Z,21.64
2022-10-06T15:10:17.475Z,21.52
2022-10-06T15:13:20.572Z,21.37
2022-10-06T15:16:23.445Z,21.27
2022-10-06T15:19:26.633Z,21.10
2022-10-06T15:22:31.839Z,20.98
2022-10-06T15:25:52.946Z,21.03
2022-10-06T15:29:02.310Z,20.97
2022-10-06T15:32:06.817Z,20.78
2022-10-06T15:35:09.923Z,20.58
2022-10-06T15:38:12.655Z,20.30
2022-10-06T15:41:15.977Z,20.26
2022-10-06T15:44:19.838Z,20.21
2022-10-06T15:47:22.668Z,20.17
2022-10-06T15:50:25.422Z,20.06
2022-10-06T15:53:28.187Z,19.85
2022-10-06T15:56:32.029Z,19.68
2022-10-06T15:59:35.615Z,19.55
2022-10-06T16:02:38.377Z,19.39
2022-10-06T16:05:46.757Z,19.21
2022-10-06T16:08:49.677Z,19.12
2022-10-06T16:11:53.523Z,18.91
2022-10-06T16:14:56.547Z,18.60
2022-10-06T16:17:59.655Z,18.45
2022-10-06T16:21:03.005Z,18.41
2022-10-06T16:24:06.000Z,18.13
2022-10-06T16:27:16.108Z,18.06
2022-10-06T16:30:18.979Z,17.98
2022-10-06T16:33:21.780Z,17.90
2022-10-06T16:36:24.737Z,17.80
2022-10-06T16:39:28.211Z,17.68
2022-10-06T16:42:31.002Z,17.52
2022-10-06T16:45:34.283Z,17.45
2022-10-06T16:48:39.628Z,17.29
2022-10-06T16:51:45.856Z,17.25
2022-10-06T16:54:48.677Z,17.13
2022-10-06T16:57:51.358Z,17.02
2022-10-06T17:00:58.397Z,16.96
2022-10-06T17:04:06.716Z,16.86
2022-10-06T17:07:10.050Z,16.77
2022-10-06T17:10:20.639Z,16.71
2022-10-06T17:13:24.061Z,16.63
2022-10-06T17:16:32.810Z,16.59
2022-10-06T17:19:36.139Z,16.58
2022-10-06T17:22:39.039Z,16.48
2022-10-06T17:25:42.637Z,16.45
2022-10-06T17:28:50.511Z,16.33
2022-10-06T17:31:56.351Z,16.30
2022-10-06T17:34:59.326Z,16.25
2022-10-06T17:38:03.739Z,16.19
2022-10-06T17:41:10.562Z,16.13
2022-10-06T17:44:21.446Z,16.06
2022-10-06T17:47:24.214Z,16.11
2022-10-06T17:50:27.819Z,16.09
2022-10-06T17:53:30.671Z,16.13
2022-10-06T17:56:37.387Z,16.08
2022-10-06T17:59:40.072Z,15.98
2022-10-06T18:02:43.386Z,15.95
2022-10-06T18:05:53.762Z,15.87
2022-10-06T18:08:59.575Z,15.80
2022-10-06T18:12:03.354Z,15.75
2022-10-06T18:15:06.435Z,15.70
2022-10-06T18:18:09.230Z,15.58
2022-10-06T18:21:12.619Z,15.55
2022-10-06T18:24:17.170Z,15.56
2022-10-06T18:27:20.425Z,15.50
2022-10-06T18:30:28.347Z,15.50
2022-10-06T18:36:54.800Z,15.42
2022-10-06T18:39:57.644Z,15.34
2022-10-06T18:43:00.940Z,15.34
2022-10-06T18:46:25.132Z,15.31
2022-10-06T18:49:28.056Z,15.21
2022-10-06T18:52:30.967Z,15.17
2022-10-06T18:55:35.202Z,15.13
2022-10-06T18:58:39.959Z,15.09
2022-10-06T19:01:45.564Z,14.99
2022-10-06T19:04:48.554Z,15.02
2022-10-06T19:07:53.995Z,15.08
2022-10-06T19:11:21.042Z,15.03
2022-10-06T19:14:29.940Z,14.91
2022-10-06T19:17:32.695Z,14.83
2022-10-06T19:20:35.671Z,14.76
2022-10-06T19:23:40.109Z,14.68
2022-10-06T19:26:46.127Z,14.59
2022-10-06T19:29:56.793Z,14.50
2022-10-06T19:32:59.815Z,14.47
2022-10-06T19:36:03.836Z,14.41
2022-10-06T19:39:10.609Z,14.35
2022-10-06T19:42:34.619Z,14.33
2022-10-06T19:45:37.579Z,14.31
2022-10-06T19:48:40.593Z,14.25
2022-10-06T19:51:44.243Z,14.18
2022-10-06T19:54:47.048Z,14.20
2022-10-06T19:57:53.696Z,14.06
2022-10-06T20:00:56.470Z,14.11
2022-10-06T20:03:59.733Z,13.95
2022-10-06T20:07:03.003Z,13.94
2022-10-06T20:10:06.601Z,13.91
2022-10-06T20:13:10.035Z,13.87
2022-10-06T20:16:18.749Z,13.71
2022-10-06T20:19:22.362Z,13.61
2022-10-06T20:22:25.633Z,13.49
2022-10-06T20:25:28.473Z,13.45
2022-10-06T20:28:34.611Z,13.35
2022-10-06T20:31:43.057Z,13.31
2022-10-06T20:34:45.806Z,13.21
2022-10-06T20:37:48.570Z,13.09
2022-10-06T20:40:51.657Z,13.07
2022-10-06T20:43:57.270Z,13.02
2022-10-06T20:47:00.264Z,12.96
2022-10-06T20:50:03.033Z,12.97
2022-10-06T20:53:05.918Z,12.98
2022-10-06T20:56:09.735Z,12.95
2022-10-06T20:59:12.737Z,12.92
2022-10-06T21:02:15.639Z,12.89
2022-10-06T21:05:18.965Z,12.77
2022-10-06T21:08:22.395Z,12.79
2022-10-06T21:11:25.837Z,12.69
2022-10-06T21:14:29.490Z,12.62
2022-10-06T21:17:32.236Z,12.59
2022-10-06T21:20:40.764Z,12.57
2022-10-06T21:23:50.263Z,12.57
2022-10-06T21:26:53.051Z,12.56
2022-10-06T21:29:56.223Z,12.52
2022-10-06T21:32:59.271Z,12.48
2022-10-06T21:36:04.092Z,12.47
2022-10-06T21:39:07.370Z,12.38
2022-10-06T21:42:10.263Z,12.43
2022-10-06T21:45:13.143Z,12.35
2022-10-06T21:48:16.064Z,12.30
2022-10-06T21:51:19.353Z,12.29
2022-10-06T21:54:23.601Z,12.23
2022-10-06T21:57:26.281Z,12.16
2022-10-06T22:00:28.968Z,12.13
2022-10-06T22:03:34.887Z,12.05
2022-10-06T22:06:37.760Z,12.09
2022-10-06T22:09:40.481Z,12.03
2022-10-06T22:12:43.273Z,11.97
2022-10-06T22:15:46.039Z,11.98
2022-10-06T22:18:49.768Z,11.96
2022-10-06T22:21:54.238Z,11.93
2022-10-06T22:24:56.889Z,11.88
2022-10-06T22:27:59.603Z,11.86
2022-10-06T22:31:08.020Z,11.80
2022-10-06T22:34:13.427Z,11.77
2022-10-06T22:37:16.108Z,11.81
2022-10-06T22:40:18.835Z,11.83
2022-10-06T22:43:21.619Z,11.71
2022-10-06T22:46:25.982Z,11.76
2022-10-06T22:49:28.683Z,11.74
2022-10-06T22:52:31.398Z,11.69
2022-10-06T22:55:34.122Z,11.63
2022-10-06T22:58:38.855Z,11.60
2022-10-06T23:01:41.912Z,11.60
2022-10-06T23:04:44.779Z,11.49
2022-10-06T23:07:47.755Z,11.45
2022-10-06T23:10:50.705Z,11.43
2022-10-06T23:13:53.737Z,11.56
2022-10-06T23:16:56.549Z,11.65
2022-10-06T23:19:59.344Z,11.68
2022-10-06T23:23:02.145Z,11.69
2022-10-06T23:26:10.652Z,11.54
2022-10-06T23:29:13.419Z,11.51
2022-10-06T23:32:16.386Z,11.47
2022-10-06T23:35:19.065Z,11.47
2022-10-06T23:38:21.922Z,11.40
2022-10-06T23:41:24.677Z,11.44
2022-10-06T23:44:27.595Z,11.43
2022-10-06T23:47:30.365Z,11.44
2022-10-06T23:50:33.539Z,11.37
2022-10-06T23:53:36.884Z,11.31
2022-10-06T23:56:39.639Z,11.30
2022-10-06T23:59:42.351Z,11.38
